createdAt,value
2023-04-15T07:13:58.837Z,9400.32
2023-04-15T07:14:13.794Z,9400.32
2023-04-15T07:15:14.700Z,9400.32
2023-04-15T07:16:13.825Z,10183.68
2023-04-15T07:17:13.924Z,9400.32
2023-04-15T07:18:13.218Z,10183.68
2023-04-15T07:19:13.374Z,10183.68
2023-04-15T07:20:13.410Z,10183.68
2023-04-15T07:21:13.269Z,10183.68
2023-04-15T07:22:13.183Z,10183.68
2023-04-15T07:23:13.089Z,10183.68
2023-04-15T07:24:13.379Z,10183.68
2023-04-15T07:25:13.433Z,10183.68
2023-04-15T07:26:13.475Z,10183.68
2023-04-15T07:27:13.547Z,10183.68
2023-04-15T07:28:13.618Z,10183.68
2023-04-15T07:29:13.619Z,10967.04
2023-04-15T07:30:13.541Z,10967.04
2023-04-15T07:31:13.457Z,10967.04
2023-04-15T07:32:13.532Z,10967.04
2023-04-15T07:33:13.496Z,10967.04
2023-04-15T07:34:13.390Z,10183.68
2023-04-15T07:35:13.569Z,10967.04
2023-04-15T07:36:13.501Z,10967.04
2023-04-15T07:37:13.617Z,10967.04
2023-04-15T07:38:13.858Z,10967.04
2023-04-15T07:39:14.116Z,10967.04
2023-04-15T07:40:12.952Z,10967.04
2023-04-15T07:41:12.959Z,11750.40
2023-04-15T07:42:13.127Z,10967.04
2023-04-15T07:43:13.206Z,10967.04
2023-04-15T07:44:13.176Z,10967.04
2023-04-15T07:45:13.383Z,11750.40
2023-04-15T07:46:13.461Z,10967.04
2023-04-15T07:47:13.688Z,10967.04
2023-04-15T07:48:13.759Z,11750.40
2023-04-15T07:49:13.827Z,11750.40
2023-04-15T07:50:13.769Z,11750.40
2023-04-15T07:51:13.635Z,11750.40
2023-04-15T07:52:13.524Z,11750.40
2023-04-15T07:53:13.516Z,11750.40
2023-04-15T07:54:13.550Z,12533.76
2023-04-15T07:55:13.662Z,12533.76
2023-04-15T07:56:13.719Z,12533.76
2023-04-15T07:57:13.705Z,12533.76
2023-04-15T07:58:14.223Z,12533.76
2023-04-15T07:59:13.083Z,12533.76
2023-04-15T08:00:13.008Z,14100.48
2023-04-15T08:01:12.912Z,14100.48
2023-04-15T08:02:13.191Z,14100.48
2023-04-15T08:03:13.748Z,14100.48
2023-04-15T08:04:12.856Z,15667.20
2023-04-15T08:05:14.308Z,14100.48
2023-04-15T08:06:13.558Z,15667.20
2023-04-15T08:07:13.970Z,15667.20
2023-04-15T08:08:12.889Z,14100.48
2023-04-15T08:09:12.990Z,14100.48
2023-04-15T08:10:12.781Z,14100.48
2023-04-15T08:11:14.001Z,14100.48
2023-04-15T08:12:13.084Z,12533.76
2023-04-15T08:13:13.129Z,12533.76
2023-04-15T08:14:13.005Z,12533.76
2023-04-15T08:15:13.203Z,12533.76
2023-04-15T08:16:13.071Z,12533.76
2023-04-15T08:17:12.979Z,12533.76
2023-04-15T08:18:12.924Z,12533.76
2023-04-15T08:19:12.847Z,12533.76
2023-04-15T08:20:13.895Z,12533.76
2023-04-15T08:21:13.193Z,14100.48
2023-04-15T08:22:18.517Z,14100.48
2023-04-15T08:23:13.671Z,14100.48
2023-04-15T08:24:13.676Z,14100.48
2023-04-15T08:25:13.536Z,14100.48
2023-04-15T08:26:13.487Z,15667.20
2023-04-15T08:27:13.383Z,15667.20
2023-04-15T08:28:13.341Z,15667.20
2023-04-15T08:29:13.602Z,17233.92
2023-04-15T08:30:13.809Z,17233.92
2023-04-15T08:31:13.925Z,17233.92
2023-04-15T08:32:13.090Z,17233.92
2023-04-15T08:33:13.311Z,17233.92
2023-04-15T08:34:13.560Z,17233.92
2023-04-15T08:35:13.950Z,15667.20
2023-04-15T08:36:12.820Z,15667.20
2023-04-15T08:37:13.781Z,15667.20
2023-04-15T08:38:13.758Z,15667.20
2023-04-15T08:39:13.721Z,15667.20
2023-04-15T08:40:13.746Z,15667.20
2023-04-15T08:41:13.791Z,14100.48
2023-04-15T08:42:13.714Z,14100.48
2023-04-15T08:43:13.617Z,14100.48
2023-04-15T08:44:13.564Z,14100.48
2023-04-15T08:45:13.616Z,12533.76
2023-04-15T08:46:13.606Z,11750.40
2023-04-15T08:47:13.545Z,12533.76
2023-04-15T08:48:13.843Z,11750.40
2023-04-15T08:49:13.737Z,9400.32
2023-04-15T08:50:13.637Z,10967.04
2023-04-15T08:51:13.504Z,12533.76
2023-04-15T08:52:13.648Z,11750.40
2023-04-15T08:53:13.990Z,12533.76
2023-04-15T08:54:12.937Z,10967.04
2023-04-15T08:55:12.928Z,10967.04
2023-04-15T08:56:12.852Z,11750.40
2023-04-15T08:57:13.841Z,12533.76
2023-04-15T08:58:13.845Z,11750.40
2023-04-15T08:59:13.824Z,12533.76
2023-04-15T09:00:13.722Z,12533.76
2023-04-15T09:01:13.696Z,14100.48
2023-04-15T09:02:13.842Z,15667.20
2023-04-15T09:03:14.499Z,15667.20
2023-04-15T09:04:14.554Z,14100.48
2023-04-15T09:05:13.497Z,12533.76
2023-04-15T09:06:13.712Z,12533.76
2023-04-15T09:07:13.772Z,12533.76
2023-04-15T09:08:13.852Z,12533.76
2023-04-15T09:09:12.870Z,12533.76
2023-04-15T09:10:13.869Z,11750.40
2023-04-15T09:11:13.866Z,11750.40
2023-04-15T09:12:13.727Z,12533.76
2023-04-15T09:13:13.663Z,12533.76
2023-04-15T09:14:13.574Z,11750.40
2023-04-15T09:15:13.583Z,10967.04
2023-04-15T09:16:13.789Z,11750.40
2023-04-15T09:17:13.697Z,11750.40
2023-04-15T09:18:14.159Z,11750.40
2023-04-15T09:19:13.412Z,10967.04
2023-04-15T09:20:13.482Z,10183.68
2023-04-15T09:21:13.422Z,10183.68
2023-04-15T09:22:13.679Z,10967.04
2023-04-15T09:23:13.637Z,10967.04
2023-04-15T09:24:13.832Z,11750.40
2023-04-15T09:25:14.027Z,10967.04
2023-04-15T09:26:12.834Z,11750.40
2023-04-15T09:27:13.872Z,14100.48
2023-04-15T09:28:13.858Z,12533.76
2023-04-15T09:29:13.930Z,11750.40
2023-04-15T09:30:12.873Z,12533.76
2023-04-15T09:31:14.210Z,12533.76
2023-04-15T09:32:13.262Z,14100.48
2023-04-15T09:33:13.756Z,14100.48
2023-04-15T09:34:14.036Z,12533.76
2023-04-15T09:35:13.024Z,12533.76
2023-04-15T09:36:12.916Z,14100.48
2023-04-15T09:37:15.096Z,15667.20
2023-04-15T09:38:13.430Z,17233.92
2023-04-15T09:39:13.490Z,15667.20
2023-04-15T09:40:13.801Z,14100.48
2023-04-15T09:41:13.792Z,15667.20
2023-04-15T09:42:14.297Z,14100.48
2023-04-15T09:43:13.255Z,14100.48
2023-04-15T09:44:13.490Z,14100.48
2023-04-15T09:45:13.548Z,15667.20
2023-04-15T09:46:13.793Z,14100.48
2023-04-15T09:47:13.786Z,15667.20
2023-04-15T09:48:13.838Z,14100.48
2023-04-15T09:49:14.008Z,14100.48
2023-04-15T09:50:13.065Z,14100.48
2023-04-15T09:51:13.154Z,15667.20
2023-04-15T09:52:13.018Z,15667.20
2023-04-15T09:53:13.203Z,12533.76
2023-04-15T09:54:13.136Z,10183.68
2023-04-15T09:55:13.404Z,10967.04
2023-04-15T09:56:13.272Z,10967.04
2023-04-15T09:57:13.328Z,9400.32
2023-04-15T09:58:13.179Z,10183.68
2023-04-15T09:59:13.345Z,10967.04
2023-04-15T10:00:13.277Z,11750.40
2023-04-15T10:01:13.601Z,10967.04
2023-04-15T10:02:13.714Z,10183.68
2023-04-15T10:03:13.908Z,10183.68
2023-04-15T10:04:12.944Z,10183.68
2023-04-15T10:05:13.175Z,10967.04
2023-04-15T10:06:12.995Z,11750.40
2023-04-15T10:07:13.147Z,11750.40
2023-04-15T10:08:13.057Z,10183.68
2023-04-15T10:09:13.405Z,7833.60
2023-04-15T10:10:13.386Z,7833.60
2023-04-15T10:11:14.026Z,7833.60
2023-04-15T10:12:13.265Z,6266.88
2023-04-15T10:13:13.567Z,6266.88
2023-04-15T10:14:13.437Z,7050.24
2023-04-15T10:15:13.471Z,7833.60
2023-04-15T10:16:13.526Z,7833.60
2023-04-15T10:17:13.511Z,7833.60
2023-04-15T10:18:13.363Z,7833.60
2023-04-15T10:19:13.433Z,7833.60
2023-04-15T10:20:13.331Z,7833.60
2023-04-15T10:21:13.319Z,8616.96
2023-04-15T10:22:13.257Z,7833.60
2023-04-15T10:23:13.517Z,7050.24
2023-04-15T10:24:13.427Z,7050.24
2023-04-15T10:25:13.555Z,7050.24
2023-04-15T10:26:13.564Z,7833.60
2023-04-15T10:27:13.453Z,8616.96
2023-04-15T10:28:13.381Z,8616.96
2023-04-15T10:29:13.418Z,7833.60
2023-04-15T10:30:13.228Z,7050.24
2023-04-15T10:31:13.610Z,6266.88
2023-04-15T10:32:13.765Z,7833.60
2023-04-15T10:33:14.215Z,7833.60
2023-04-15T10:34:13.081Z,7833.60
2023-04-15T10:35:13.017Z,8616.96
2023-04-15T10:36:12.969Z,7050.24
2023-04-15T10:37:12.841Z,7050.24
2023-04-15T10:38:13.755Z,7050.24
2023-04-15T10:39:13.809Z,7833.60
2023-04-15T10:40:13.935Z,7050.24
2023-04-15T10:41:12.832Z,7050.24
2023-04-15T10:42:13.878Z,7833.60
2023-04-15T10:43:13.143Z,7050.24
2023-04-15T10:44:13.068Z,6266.88
2023-04-15T10:45:12.941Z,7833.60
2023-04-15T10:46:13.667Z,7833.60
2023-04-15T10:47:13.762Z,7050.24
2023-04-15T10:48:14.170Z,8616.96
2023-04-15T10:49:13.032Z,9400.32
2023-04-15T10:50:13.145Z,9400.32
2023-04-15T10:51:13.118Z,9400.32
2023-04-15T10:52:13.130Z,10183.68
2023-04-15T10:53:13.125Z,9400.32
2023-04-15T10:54:13.428Z,8616.96
2023-04-15T10:55:13.761Z,8616.96
2023-04-15T10:56:13.655Z,7833.60
2023-04-15T10:57:13.750Z,7050.24
2023-04-15T10:58:15.439Z,6266.88
2023-04-15T10:59:13.744Z,6266.88
2023-04-15T11:00:13.984Z,6266.88
2023-04-15T11:01:13.534Z,7050.24
2023-04-15T11:02:13.598Z,7833.60
2023-04-15T11:03:14.090Z,7833.60
2023-04-15T11:04:14.821Z,8616.96
2023-04-15T11:05:13.778Z,9400.32
2023-04-15T11:06:13.797Z,7833.60
2023-04-15T11:07:14.079Z,7833.60
2023-04-15T11:08:13.218Z,7833.60
2023-04-15T11:09:13.177Z,7833.60
2023-04-15T11:10:13.158Z,7050.24
2023-04-15T11:11:13.325Z,7050.24
2023-04-15T11:12:13.461Z,6266.88
2023-04-15T11:13:13.415Z,6266.88
2023-04-15T11:14:13.289Z,5483.52
2023-04-15T11:15:13.363Z,5091.84
2023-04-15T11:16:13.450Z,5091.84
2023-04-15T11:17:13.497Z,5091.84
2023-04-15T11:18:13.308Z,5483.52
2023-04-15T11:19:13.174Z,5483.52
2023-04-15T11:20:13.017Z,5875.20
2023-04-15T11:21:12.882Z,6266.88
2023-04-15T11:22:13.746Z,7050.24
2023-04-15T11:23:15.123Z,7833.60
2023-04-15T11:24:14.210Z,7050.24
2023-04-15T11:25:13.156Z,6266.88
2023-04-15T11:26:13.097Z,5483.52
2023-04-15T11:27:13.303Z,5483.52
2023-04-15T11:28:13.246Z,5483.52
2023-04-15T11:29:13.501Z,5483.52
2023-04-15T11:30:13.701Z,5875.20
2023-04-15T11:31:18.966Z,5875.20
2023-04-15T11:32:13.159Z,5483.52
2023-04-15T11:33:13.267Z,5091.84
2023-04-15T11:34:13.152Z,5091.84
2023-04-15T11:35:13.242Z,5483.52
2023-04-15T11:36:13.288Z,5483.52
2023-04-15T11:37:13.300Z,6266.88
2023-04-15T11:38:13.301Z,7833.60
2023-04-15T11:39:13.266Z,7050.24
2023-04-15T11:40:13.233Z,6266.88
2023-04-15T11:41:13.401Z,6266.88
2023-04-15T11:42:13.688Z,5875.20
2023-04-15T11:43:13.595Z,5875.20
2023-04-15T11:45:10.388Z,5875.20
2023-04-15T11:45:15.159Z,5875.20
2023-04-15T11:46:13.044Z,5483.52
2023-04-15T11:47:13.254Z,5875.20
2023-04-15T11:48:13.528Z,6266.88
2023-04-15T11:49:14.669Z,7050.24
2023-04-15T11:50:13.774Z,7050.24
2023-04-15T11:51:13.887Z,7050.24
2023-04-15T11:52:12.845Z,6266.88
2023-04-15T11:53:13.958Z,7050.24
2023-04-15T11:54:13.155Z,7050.24
2023-04-15T11:55:13.232Z,7050.24
2023-04-15T11:56:13.388Z,7833.60
2023-04-15T11:57:13.416Z,9400.32
2023-04-15T11:58:15.643Z,9400.32
2023-04-15T11:59:13.401Z,8616.96
2023-04-15T12:00:13.373Z,9400.32
2023-04-15T12:01:13.670Z,10967.04
2023-04-15T12:02:13.807Z,11750.40
2023-04-15T12:03:13.984Z,12533.76
2023-04-15T12:04:13.329Z,12533.76
2023-04-15T12:05:13.493Z,15667.20
2023-04-15T12:06:39.534Z,14100.48
2023-04-15T12:07:13.520Z,12533.76
2023-04-15T12:08:18.648Z,9400.32
2023-04-15T12:09:14.029Z,9400.32
2023-04-15T12:10:38.224Z,9400.32
2023-04-15T12:11:20.835Z,9400.32
2023-04-15T12:12:14.289Z,10183.68
2023-04-15T12:13:13.612Z,10967.04
2023-04-15T12:14:13.443Z,9400.32
2023-04-15T12:15:23.661Z,8616.96
2023-04-15T12:16:13.899Z,7833.60
2023-04-15T12:17:12.945Z,8616.96
2023-04-15T12:18:13.156Z,7833.60
2023-04-15T12:19:13.156Z,7050.24
2023-04-15T12:20:13.171Z,7050.24
2023-04-15T12:21:56.173Z,9400.32
2023-04-15T12:22:22.049Z,9400.32
2023-04-15T12:23:13.340Z,9400.32
2023-04-15T12:24:13.539Z,8616.96
2023-04-15T12:25:13.684Z,8616.96
2023-04-15T12:26:23.429Z,7833.60
2023-04-15T12:27:13.624Z,8616.96
2023-04-15T12:28:23.853Z,8616.96
2023-04-15T12:29:39.201Z,9400.32
2023-04-15T12:30:13.160Z,8616.96
2023-04-15T12:31:13.190Z,7050.24
2023-04-15T12:33:28.034Z,7050.24
2023-04-15T12:34:12.941Z,7050.24
2023-04-15T12:35:12.825Z,7833.60
2023-04-15T12:36:13.755Z,7833.60
2023-04-15T12:37:13.952Z,9400.32
2023-04-15T12:38:12.995Z,8616.96
2023-04-15T12:39:13.218Z,8616.96
2023-04-15T12:40:13.322Z,7833.60
2023-04-15T12:41:13.259Z,7050.24
2023-04-15T12:42:13.220Z,7050.24
2023-04-15T12:43:13.136Z,7833.60
2023-04-15T12:44:13.095Z,7833.60
2023-04-15T12:45:13.042Z,7050.24
2023-04-15T12:46:13.069Z,7833.60
2023-04-15T12:47:12.968Z,7833.60
2023-04-15T12:48:13.143Z,8616.96
2023-04-15T12:49:13.207Z,8616.96
2023-04-15T12:50:13.207Z,9400.32
2023-04-15T12:51:13.136Z,8616.96
2023-04-15T12:52:12.992Z,7833.60
2023-04-15T12:53:13.165Z,7833.60
2023-04-15T12:54:13.241Z,7833.60
2023-04-15T12:55:13.126Z,7833.60
2023-04-15T12:56:12.971Z,7833.60
2023-04-15T12:57:13.444Z,6266.88
2023-04-15T12:58:13.641Z,6266.88
2023-04-15T12:59:13.665Z,7050.24
2023-04-15T13:00:13.692Z,6266.88
2023-04-15T13:01:13.588Z,6266.88
2023-04-15T13:02:13.630Z,6266.88
2023-04-15T13:03:13.809Z,6266.88
2023-04-15T13:04:13.196Z,6266.88
2023-04-15T13:05:13.600Z,5875.20
2023-04-15T13:06:13.920Z,6266.88
2023-04-15T13:07:13.393Z,6266.88
2023-04-15T13:08:13.999Z,6266.88
2023-04-15T13:09:12.915Z,7050.24
2023-04-15T13:10:12.910Z,7050.24
2023-04-15T13:11:12.792Z,7833.60
2023-04-15T13:12:13.734Z,7050.24
2023-04-15T13:13:13.782Z,7050.24
2023-04-15T13:14:13.884Z,7050.24
2023-04-15T13:15:12.921Z,6266.88
2023-04-15T13:16:13.148Z,6266.88
2023-04-15T13:17:13.051Z,5875.20
2023-04-15T13:18:12.886Z,6266.88
2023-04-15T13:19:12.737Z,6266.88
2023-04-15T13:20:13.696Z,6266.88
2023-04-15T13:21:13.838Z,6266.88
2023-04-15T13:22:13.635Z,6266.88
2023-04-15T13:23:13.707Z,7050.24
2023-04-15T13:24:13.602Z,6266.88
2023-04-15T13:25:13.658Z,6266.88
2023-04-15T13:26:13.703Z,5875.20
2023-04-15T13:27:13.641Z,5483.52
2023-04-15T13:28:13.724Z,5483.52
2023-04-15T13:29:13.752Z,5483.52
2023-04-15T13:30:13.576Z,5483.52
2023-04-15T13:31:13.501Z,5483.52
2023-04-15T13:32:13.524Z,5483.52
2023-04-15T13:33:13.561Z,5091.84
2023-04-15T13:34:13.448Z,4700.16
2023-04-15T13:35:13.416Z,5091.84
2023-04-15T13:36:13.302Z,5091.84
2023-04-15T13:37:13.550Z,4700.16
2023-04-15T13:38:13.448Z,5091.84
2023-04-15T13:39:13.412Z,5091.84
2023-04-15T13:40:13.687Z,5091.84
2023-04-15T13:41:45.888Z,4308.48
2023-04-15T13:42:12.877Z,3916.80
2023-04-15T13:43:13.771Z,3916.80
2023-04-15T13:44:13.642Z,4700.16
2023-04-15T13:45:13.556Z,4308.48
2023-04-15T13:46:41.461Z,3525.12
2023-04-15T13:47:12.936Z,3133.44
2023-04-15T13:48:13.246Z,3133.44
2023-04-15T13:49:13.408Z,3525.12
2023-04-15T13:50:13.493Z,4308.48
2023-04-15T13:51:34.164Z,4308.48
2023-04-15T13:52:13.078Z,4700.16
2023-04-15T13:53:13.001Z,4308.48
2023-04-15T13:54:13.244Z,4308.48
2023-04-15T13:55:21.154Z,4308.48
2023-04-15T13:56:13.291Z,4700.16
2023-04-15T13:57:13.108Z,4700.16
2023-04-15T13:58:13.128Z,4308.48
2023-04-15T13:59:13.047Z,3916.80
2023-04-15T14:00:12.857Z,3916.80
2023-04-15T14:01:14.021Z,3916.80
2023-04-15T14:02:13.405Z,3525.12
2023-04-15T14:03:13.620Z,3525.12
2023-04-15T14:04:13.834Z,3525.12
2023-04-15T14:05:12.976Z,3133.44
2023-04-15T14:06:13.525Z,3133.44
2023-04-15T14:07:13.795Z,3133.44
2023-04-15T14:08:14.088Z,3133.44
2023-04-15T14:09:12.941Z,3133.44
2023-04-15T14:10:12.820Z,2937.60
2023-04-15T14:11:13.597Z,2937.60
2023-04-15T14:12:18.688Z,2937.60
2023-04-15T14:13:13.536Z,3133.44
2023-04-15T14:14:15.262Z,3133.44
2023-04-15T14:15:13.177Z,3133.44
2023-04-15T14:16:13.219Z,3133.44
2023-04-15T14:17:13.264Z,3133.44
2023-04-15T14:18:13.480Z,3525.12
2023-04-15T14:19:13.558Z,3133.44
2023-04-15T14:20:16.777Z,3525.12
2023-04-15T14:21:13.272Z,3133.44
2023-04-15T14:22:13.352Z,3133.44
2023-04-15T14:23:13.262Z,2937.60
2023-04-15T14:24:13.223Z,2741.76
2023-04-15T14:25:20.147Z,2545.92
2023-04-15T14:26:13.889Z,2741.76
2023-04-15T14:27:13.005Z,2741.76
2023-04-15T14:28:13.079Z,2741.76
2023-04-15T14:29:12.990Z,2937.60
2023-04-15T14:30:12.958Z,3133.44
2023-04-15T14:31:13.107Z,3525.12
2023-04-15T14:32:13.268Z,3525.12
2023-04-15T14:33:13.698Z,3916.80
2023-04-15T14:34:13.692Z,3525.12
2023-04-15T14:35:13.890Z,3525.12
2023-04-15T14:36:13.982Z,3133.44
2023-04-15T14:37:13.177Z,2741.76
2023-04-15T14:38:13.072Z,2937.60
2023-04-15T14:39:13.003Z,2937.60
2023-04-15T14:40:12.877Z,3133.44
2023-04-15T14:41:13.898Z,3133.44
2023-04-15T14:42:12.911Z,3133.44
2023-04-15T14:43:13.051Z,2741.76
2023-04-15T14:44:13.129Z,2350.08
2023-04-15T14:45:13.242Z,2154.24
2023-04-15T14:46:13.389Z,2154.24
2023-04-15T14:47:13.616Z,2350.08
2023-04-15T14:48:13.484Z,2545.92
2023-04-15T14:49:13.806Z,2350.08
2023-04-15T14:50:13.692Z,2350.08
2023-04-15T14:51:13.913Z,2350.08
2023-04-15T14:52:12.847Z,2350.08
2023-04-15T14:53:13.751Z,2350.08
2023-04-15T14:54:14.120Z,2741.76
2023-04-15T14:55:13.043Z,2741.76
2023-04-15T14:56:13.103Z,2937.60
2023-04-15T14:57:12.993Z,3133.44
2023-04-15T14:58:12.859Z,3133.44
2023-04-15T14:59:13.783Z,3133.44
2023-04-15T15:00:15.949Z,2937.60
2023-04-15T15:01:13.471Z,3133.44
2023-04-15T15:03:13.727Z,3133.44
2023-04-15T15:04:14.104Z,3133.44
2023-04-15T15:05:13.392Z,3133.44
2023-04-15T15:06:13.349Z,3133.44
2023-04-15T15:07:13.801Z,2937.60
2023-04-15T15:08:13.725Z,3133.44
2023-04-15T15:09:13.658Z,3133.44
2023-04-15T15:10:49.478Z,2937.60
2023-04-15T15:11:12.901Z,2741.76
2023-04-15T15:12:12.849Z,2937.60
2023-04-15T15:13:13.885Z,3133.44
2023-04-15T15:14:13.081Z,3525.12
2023-04-15T15:15:28.043Z,3525.12
2023-04-15T15:16:14.746Z,3133.44
2023-04-15T15:17:12.994Z,3525.12
2023-04-15T15:18:12.981Z,3133.44
2023-04-15T15:19:13.291Z,3133.44
2023-04-15T15:20:13.505Z,3525.12
2023-04-15T15:21:13.588Z,3133.44
2023-04-15T15:22:13.514Z,2545.92
2023-04-15T15:23:13.431Z,2545.92
2023-04-15T15:24:13.212Z,1958.40
2023-04-15T15:25:13.130Z,2154.24
2023-04-15T15:26:13.028Z,2545.92
2023-04-15T15:27:12.980Z,2350.08
2023-04-15T15:28:12.961Z,2154.24
2023-04-15T15:29:12.927Z,2154.24
2023-04-15T15:30:12.892Z,2545.92
2023-04-15T15:31:13.857Z,2545.92
2023-04-15T15:32:13.790Z,2545.92
2023-04-15T15:33:13.994Z,2545.92
2023-04-15T15:34:12.858Z,1958.40
2023-04-15T15:35:13.792Z,1958.40
2023-04-15T15:36:13.555Z,1958.40
2023-04-15T15:37:13.438Z,1958.40
2023-04-15T15:38:13.305Z,1566.72
2023-04-15T15:39:13.232Z,1762.56
2023-04-15T15:40:46.175Z,1762.56
2023-04-15T15:41:13.372Z,1958.40
2023-04-15T15:42:13.946Z,1762.56
2023-04-15T15:43:12.913Z,1566.72
2023-04-15T15:44:13.000Z,1370.88
2023-04-15T15:45:13.346Z,1370.88
2023-04-15T15:46:13.478Z,1272.96
2023-04-15T15:47:13.455Z,1175.04
2023-04-15T15:48:23.494Z,1175.04
2023-04-15T15:49:13.895Z,1175.04
2023-04-15T15:50:13.021Z,1468.80
2023-04-15T15:51:12.908Z,1272.96
2023-04-15T15:52:13.147Z,1175.04
2023-04-15T15:53:13.271Z,1077.12
2023-04-15T15:54:13.305Z,979.20
2023-04-15T15:55:13.239Z,979.20
2023-04-15T15:56:13.378Z,1175.04
2023-04-15T15:57:13.315Z,1077.12
2023-04-15T15:58:13.478Z,1272.96
2023-04-15T15:59:13.358Z,1370.88
2023-04-15T16:00:13.346Z,1468.80
2023-04-15T16:01:13.441Z,1272.96
2023-04-15T16:02:13.635Z,1175.04
2023-04-15T16:03:13.982Z,1175.04
2023-04-15T16:04:13.176Z,1566.72
2023-04-15T16:05:13.464Z,1370.88
2023-04-15T16:06:13.348Z,1175.04
2023-04-15T16:07:13.268Z,979.20
2023-04-15T16:08:13.198Z,1272.96
2023-04-15T16:09:13.087Z,1468.80
2023-04-15T16:10:13.050Z,1370.88
2023-04-15T16:11:12.934Z,1468.80
2023-04-15T16:12:12.783Z,1272.96
2023-04-15T16:13:13.605Z,1272.96
2023-04-15T16:14:13.871Z,1175.04
2023-04-15T16:15:13.846Z,1175.04
2023-04-15T16:16:13.919Z,1175.04
2023-04-15T16:17:12.991Z,1272.96
2023-04-15T16:18:12.979Z,1175.04
2023-04-15T16:19:12.826Z,1370.88
2023-04-15T16:20:13.864Z,1175.04
2023-04-15T16:21:13.819Z,1370.88
2023-04-15T16:22:13.930Z,1175.04
2023-04-15T16:23:12.817Z,1175.04
2023-04-15T16:24:13.828Z,881.28
2023-04-15T16:25:13.799Z,979.20
2023-04-15T16:26:13.704Z,1077.12
2023-04-15T16:27:13.764Z,1175.04
2023-04-15T16:28:25.570Z,979.20
2023-04-15T16:29:13.349Z,734.40
2023-04-15T16:30:13.539Z,881.28
2023-04-15T16:31:13.645Z,881.28
2023-04-15T16:32:13.749Z,783.36
2023-04-15T16:33:13.888Z,734.40
2023-04-15T16:34:13.875Z,979.20
2023-04-15T16:35:13.870Z,881.28
2023-04-15T16:36:13.773Z,685.44
2023-04-15T16:37:13.828Z,783.36
2023-04-15T16:38:13.890Z,783.36
2023-04-15T16:39:12.886Z,783.36
2023-04-15T16:40:12.904Z,734.40
2023-04-15T16:41:14.211Z,783.36
2023-04-15T16:42:13.157Z,636.48
2023-04-15T16:43:13.122Z,636.48
2023-04-15T16:44:13.153Z,587.52
2023-04-15T16:45:13.184Z,685.44
2023-04-15T16:46:13.228Z,636.48
2023-04-15T16:47:13.915Z,685.44
2023-04-15T16:48:12.794Z,734.40
2023-04-15T16:49:13.756Z,685.44
2023-04-15T16:50:13.710Z,685.44
2023-04-15T16:51:13.576Z,587.52
2023-04-15T16:52:13.499Z,538.56
2023-04-15T16:53:13.433Z,636.48
2023-04-15T16:54:13.406Z,489.60
2023-04-15T16:55:13.526Z,538.56
2023-04-15T16:56:13.531Z,538.56
2023-04-15T16:57:13.545Z,489.60
2023-04-15T16:58:13.479Z,391.68
2023-04-15T16:59:13.368Z,367.20
2023-04-15T17:00:15.470Z,367.20
2023-04-15T17:01:13.723Z,367.20
2023-04-15T17:02:13.787Z,342.72
2023-04-15T17:03:13.539Z,391.68
2023-04-15T17:04:13.850Z,318.24
2023-04-15T17:05:12.813Z,318.24
2023-04-15T17:06:13.914Z,318.24
2023-04-15T17:07:13.021Z,342.72
2023-04-15T17:08:12.996Z,293.76
2023-04-15T17:09:13.268Z,269.28
2023-04-15T17:10:13.043Z,269.28
2023-04-15T17:11:13.052Z,293.76
2023-04-15T17:12:13.014Z,269.28
2023-04-15T17:13:13.117Z,244.80
2023-04-15T17:14:13.156Z,318.24
2023-04-15T17:15:13.132Z,269.28
2023-04-15T17:16:13.102Z,269.28
2023-04-15T17:17:13.173Z,342.72
2023-04-15T17:18:18.063Z,318.24
2023-04-15T17:19:13.198Z,293.76
2023-04-15T17:20:13.287Z,293.76
2023-04-15T17:21:13.207Z,244.80
2023-04-15T17:22:13.116Z,269.28
2023-04-15T17:23:13.208Z,269.28
2023-04-15T17:24:13.343Z,220.32
2023-04-15T17:25:13.504Z,244.80
2023-04-15T17:26:13.652Z,220.32
2023-04-15T17:27:13.689Z,220.32
2023-04-15T17:28:13.893Z,195.84
2023-04-15T17:29:12.953Z,183.60
2023-04-15T17:30:13.236Z,171.36
2023-04-15T17:31:13.409Z,159.12
2023-04-15T17:32:13.698Z,159.12
2023-04-15T17:33:53.463Z,159.12
2023-04-15T17:34:15.767Z,122.40
2023-04-15T17:35:43.537Z,134.64
2023-04-15T17:36:13.635Z,134.64
2023-04-15T17:37:13.556Z,122.40
2023-04-15T17:38:13.350Z,97.92
2023-04-15T17:39:13.251Z,110.16
2023-04-15T17:40:13.279Z,134.64
2023-04-15T17:41:13.200Z,110.16
2023-04-15T17:42:27.730Z,97.92
2023-04-15T17:43:13.753Z,97.92
2023-04-15T17:44:13.740Z,110.16
2023-04-15T17:45:13.754Z,97.92
2023-04-15T17:46:13.831Z,110.16
2023-04-15T17:47:12.781Z,122.40
2023-04-15T17:48:13.764Z,122.40
2023-04-15T17:49:13.674Z,97.92
2023-04-15T17:50:13.636Z,97.92
2023-04-15T17:51:13.578Z,79.56
2023-04-15T17:52:13.522Z,85.68
2023-04-15T17:53:13.445Z,85.68
2023-04-15T17:54:13.769Z,85.68
2023-04-15T17:55:13.908Z,85.68
2023-04-15T17:56:12.699Z,79.56
2023-04-15T17:57:13.678Z,67.32
2023-04-15T17:58:13.895Z,73.44
2023-04-15T17:59:12.870Z,73.44
2023-04-15T18:00:13.771Z,91.80
2023-04-15T18:01:13.757Z,79.56
2023-04-15T18:02:13.717Z,79.56
2023-04-15T18:03:13.779Z,85.68
2023-04-15T18:04:14.040Z,73.44
2023-04-15T18:05:13.498Z,73.44
2023-04-15T18:06:13.548Z,73.44
2023-04-15T18:07:13.566Z,67.32
2023-04-15T18:08:13.678Z,55.08
2023-04-15T18:09:19.012Z,48.96
2023-04-15T18:10:13.452Z,45.90
2023-04-15T18:11:13.603Z,36.72
2023-04-15T18:12:13.984Z,33.66
2023-04-15T18:13:13.284Z,30.60
2023-04-15T18:14:17.727Z,33.66
2023-04-15T18:15:13.156Z,33.66
2023-04-15T18:16:37.178Z,30.60
2023-04-15T18:17:14.350Z,30.60
2023-04-15T18:18:26.294Z,30.60
2023-04-15T18:19:13.189Z,27.54
2023-04-15T18:20:13.334Z,27.54
2023-04-15T18:21:13.836Z,24.48
2023-04-15T18:22:14.023Z,22.95
2023-04-15T18:23:13.062Z,21.42
2023-04-15T18:25:13.546Z,18.36
2023-04-15T18:26:13.431Z,16.83
2023-04-15T18:27:13.890Z,15.30
2023-04-15T18:28:12.774Z,13.77
2023-04-15T18:29:33.929Z,13.77
2023-04-15T18:30:12.784Z,10.71
2023-04-15T18:31:13.776Z,9.95
2023-04-15T18:32:13.793Z,8.41
2023-04-15T18:33:13.725Z,8.41
2023-04-15T18:34:13.829Z,8.41
2023-04-15T18:35:13.902Z,7.65
2023-04-15T18:36:13.065Z,6.88
2023-04-15T18:37:13.101Z,5.35
2023-04-15T18:38:13.106Z,6.12
2023-04-15T18:39:13.113Z,3.82
2023-04-15T18:40:18.070Z,3.82
2023-04-15T18:41:13.213Z,3.06
2023-04-15T18:42:13.521Z,3.06
2023-04-15T18:43:13.362Z,2.29
2023-04-15T18:44:13.193Z,2.29
2023-04-15T18:45:13.256Z,1.53
2023-04-15T18:46:13.148Z,0.77
2023-04-15T18:47:13.143Z,0.77
2023-04-15T18:48:13.077Z,0.77
2023-04-15T18:49:13.085Z,0.77
2023-04-15T18:50:12.983Z,0.77
2023-04-15T18:51:13.321Z,0.77
2023-04-15T18:52:13.502Z,0.00
2023-04-15T18:53:13.372Z,0.00
2023-04-15T18:54:13.249Z,0.00
2023-04-15T18:55:19.271Z,0.00
2023-04-15T18:56:13.260Z,0.00
2023-04-15T18:57:13.525Z,0.00
2023-04-15T18:58:13.791Z,0.00
2023-04-15T18:59:29.801Z,0.00
2023-04-15T19:00:13.593Z,0.00
2023-04-15T19:01:13.550Z,0.00
2023-04-15T19:02:13.895Z,0.00
2023-04-15T19:03:12.855Z,0.00
2023-04-15T19:04:13.058Z,0.00
2023-04-15T19:05:13.078Z,0.00
2023-04-15T19:06:12.978Z,0.00
2023-04-15T19:07:12.912Z,0.00
2023-04-15T19:08:12.807Z,0.00
2023-04-15T19:09:14.162Z,0.00
2023-04-15T19:10:13.101Z,0.00
2023-04-15T19:11:13.178Z,0.00
2023-04-15T19:12:12.995Z,0.00
2023-04-15T19:13:13.239Z,0.00
2023-04-15T19:14:13.113Z,0.00
2023-04-15T19:15:13.458Z,0.00
2023-04-15T19:16:13.478Z,0.00
2023-04-15T19:17:13.544Z,0.00
2023-04-15T19:18:13.444Z,0.00
2023-04-15T19:19:13.391Z,0.00
2023-04-15T19:20:13.740Z,0.00
2023-04-15T19:21:13.800Z,0.00
2023-04-15T19:22:13.948Z,0.00
2023-04-15T19:23:12.848Z,0.00
2023-04-15T19:24:13.857Z,0.00
2023-04-15T19:25:13.808Z,0.00
2023-04-15T19:26:13.719Z,0.00